Wiley, Georgia
Current Conditions -  °F | °C
As of 3:55 AM on Sunday 23 Nov 2014 (Local Time) from KTOC Reporting Station
Drizzle Drizzle  
Wind Chill: 41°   Ceiling: 1700
Heat Index: 45°   Visibility: 10mi
Dew Point: 37°   Wind: 8mph
Humidity: 73%   Direction: 40°NE
Pressure: 30.21"   Gusts: NA
Location:  34.8°N, 83.42°W
Report Text: KTOC 230855Z AUTO 04007KT 10SM DZ OVC017 07/03 A3021 RMK AO2 T00720027
Loading
Personal Weather Stations






























Interactive Weather Map New forecast layout! Learn more

10-Day Weather Forecast

Advertisements
Track Severe Weather on mobile